createdAt,value
2023-05-05T00:00:24.941Z,45.33
2023-05-05T00:05:27.920Z,45.97
2023-05-05T00:10:30.812Z,45.35
2023-05-05T00:15:35.542Z,44.53
2023-05-05T00:20:38.610Z,44.25
2023-05-05T00:25:41.545Z,44.53
2023-05-05T00:30:45.921Z,44.72
2023-05-05T00:35:48.828Z,45.05
2023-05-05T00:40:52.144Z,46.67
2023-05-05T00:46:02.274Z,44.92
2023-05-05T00:51:08.815Z,44.47
2023-05-05T00:56:12.839Z,43.83
2023-05-05T01:01:17.249Z,44.03
2023-05-05T01:06:36.935Z,43.70
2023-05-05T01:11:48.586Z,44.67
2023-05-05T01:16:59.194Z,43.55
2023-05-05T01:22:08.149Z,47.22
2023-05-05T01:27:31.727Z,47.80
2023-05-05T01:32:42.901Z,46.25
2023-05-05T01:37:51.380Z,47.03
2023-05-05T01:42:56.448Z,44.25
2023-05-05T01:48:04.371Z,44.10
2023-05-05T01:53:09.527Z,43.13
2023-05-05T01:58:15.940Z,43.20
2023-05-05T02:03:23.731Z,44.97
2023-05-05T02:08:27.682Z,43.90
2023-05-05T02:13:32.378Z,44.40
2023-05-05T02:18:38.791Z,46.17
2023-05-05T02:23:41.772Z,43.90
2023-05-05T02:28:51.967Z,43.58
2023-05-05T02:33:58.936Z,42.78
2023-05-05T02:39:07.280Z,42.90
2023-05-05T02:44:14.913Z,44.33
2023-05-05T02:49:19.325Z,43.95
2023-05-05T02:54:22.794Z,43.97
2023-05-05T02:59:39.222Z,44.95
2023-05-05T03:04:56.398Z,42.55
2023-05-05T03:10:07.237Z,43.25
2023-05-05T03:15:15.195Z,43.40
2023-05-05T03:20:20.043Z,42.92
2023-05-05T03:25:42.780Z,43.35
2023-05-05T03:30:46.643Z,42.80
2023-05-05T03:35:52.546Z,42.22
2023-05-05T03:40:56.482Z,43.08
2023-05-05T03:46:02.150Z,43.20
2023-05-05T03:51:07.085Z,42.13
2023-05-05T03:56:11.501Z,42.88
2023-05-05T04:01:14.592Z,44.92
2023-05-05T04:06:18.982Z,41.75
2023-05-05T04:11:22.511Z,42.58
2023-05-05T04:16:26.145Z,42.55
2023-05-05T04:21:31.480Z,43.08
2023-05-05T04:26:35.857Z,42.20
2023-05-05T04:31:39.149Z,42.40
2023-05-05T04:36:44.042Z,42.47
2023-05-05T04:41:47.098Z,46.60
2023-05-05T04:46:50.999Z,43.03
2023-05-05T04:51:55.512Z,42.58
2023-05-05T04:56:59.170Z,44.40
2023-05-05T05:02:02.187Z,42.55
2023-05-05T05:07:06.567Z,44.33
2023-05-05T05:12:09.788Z,44.30
2023-05-05T05:17:12.803Z,44.40
2023-05-05T05:22:17.129Z,42.08
2023-05-05T05:27:20.467Z,42.55
2023-05-05T05:32:25.364Z,42.17
2023-05-05T05:37:31.843Z,42.15
2023-05-05T05:42:36.135Z,42.85
2023-05-05T05:47:40.544Z,43.05
2023-05-05T05:52:44.810Z,42.88
2023-05-05T05:57:47.742Z,44.22
2023-05-05T06:02:52.400Z,43.58
2023-05-05T06:08:00.198Z,42.90
2023-05-05T06:13:04.883Z,44.70
2023-05-05T06:18:09.344Z,42.97
2023-05-05T06:23:13.657Z,43.00
2023-05-05T06:28:21.226Z,42.83
2023-05-05T06:33:24.169Z,46.03
2023-05-05T06:38:28.355Z,43.67
2023-05-05T06:43:31.256Z,43.70
2023-05-05T06:48:36.869Z,43.83
2023-05-05T06:53:41.095Z,43.80
2023-05-05T06:58:44.012Z,44.88
2023-05-05T07:03:47.056Z,43.47
2023-05-05T07:08:51.341Z,44.65
2023-05-05T07:13:54.193Z,46.33
2023-05-05T07:18:57.103Z,46.97
2023-05-05T07:24:01.516Z,43.55
2023-05-05T07:29:07.120Z,45.50
2023-05-05T07:34:10.025Z,47.28
2023-05-05T07:39:15.337Z,44.40
2023-05-05T07:44:18.243Z,43.38
2023-05-05T07:49:21.220Z,44.33
2023-05-05T07:54:25.454Z,43.13
2023-05-05T07:59:28.382Z,48.28
2023-05-05T08:04:31.348Z,46.15
2023-05-05T08:09:35.814Z,48.90
2023-05-05T08:14:42.351Z,46.63
2023-05-05T08:19:45.334Z,49.17
2023-05-05T08:24:49.578Z,47.83
2023-05-05T08:29:52.444Z,47.35
2023-05-05T08:34:55.359Z,45.17
2023-05-05T08:40:00.390Z,45.40
2023-05-05T08:45:03.418Z,45.80
2023-05-05T08:50:07.481Z,47.35
2023-05-05T08:55:16.297Z,47.70
2023-05-05T09:00:20.499Z,45.63
2023-05-05T09:05:23.600Z,47.83
2023-05-05T09:10:29.346Z,45.40
2023-05-05T09:15:33.062Z,48.83
2023-05-05T09:20:37.453Z,47.38
2023-05-05T09:25:42.633Z,45.58
2023-05-05T09:30:47.258Z,48.55
2023-05-05T09:35:51.967Z,44.80
2023-05-05T09:40:56.286Z,45.17
2023-05-05T09:46:08.223Z,44.97
2023-05-05T09:51:11.315Z,44.50
2023-05-05T09:56:15.576Z,45.03
2023-05-05T10:01:24.015Z,45.28
2023-05-05T10:06:41.930Z,44.78
2023-05-05T10:11:47.196Z,44.65
2023-05-05T10:16:51.949Z,44.63
2023-05-05T10:22:00.422Z,45.35
2023-05-05T10:27:12.144Z,45.20
2023-05-05T10:32:53.475Z,44.80
2023-05-05T10:37:51.680Z,46.47
2023-05-05T10:42:56.456Z,46.08
2023-05-05T10:48:02.627Z,45.25
2023-05-05T10:53:13.762Z,47.80
2023-05-05T10:58:50.946Z,44.55
2023-05-05T11:04:21.186Z,44.42
2023-05-05T11:09:30.761Z,46.63
2023-05-05T11:14:35.433Z,44.80
2023-05-05T11:19:48.554Z,45.10
2023-05-05T11:24:51.537Z,44.58
2023-05-05T11:30:13.167Z,45.22
2023-05-05T11:35:16.355Z,45.45
2023-05-05T11:40:25.979Z,44.75
2023-05-05T11:45:31.106Z,46.50
2023-05-05T11:50:34.338Z,45.15
2023-05-05T11:55:37.227Z,44.95
2023-05-05T12:00:42.136Z,45.50
2023-05-05T12:05:46.270Z,44.92
2023-05-05T12:10:49.513Z,45.35
2023-05-05T12:15:53.801Z,45.88
2023-05-05T12:20:57.497Z,45.25
2023-05-05T12:26:00.463Z,46.05
2023-05-05T12:31:04.797Z,45.05
2023-05-05T12:36:09.241Z,46.63
2023-05-05T12:41:12.192Z,45.25
2023-05-05T12:46:17.446Z,44.22
2023-05-05T12:51:23.178Z,45.80
2023-05-05T12:56:33.331Z,45.05
2023-05-05T13:01:48.592Z,44.17
2023-05-05T13:07:08.284Z,44.67
2023-05-05T13:12:12.423Z,44.90
2023-05-05T13:17:16.914Z,45.10
2023-05-05T13:22:19.892Z,44.63
2023-05-05T13:27:22.811Z,44.92
2023-05-05T13:32:29.513Z,44.40
2023-05-05T13:37:32.394Z,45.00
2023-05-05T13:42:35.290Z,44.78
2023-05-05T13:47:40.910Z,44.88
2023-05-05T13:52:43.925Z,45.53
2023-05-05T13:57:47.248Z,45.55
2023-05-05T14:02:51.778Z,44.78
2023-05-05T14:07:55.351Z,44.38
2023-05-05T14:12:58.510Z,45.55
2023-05-05T14:18:02.891Z,44.67
2023-05-05T14:23:05.973Z,43.63
2023-05-05T14:28:09.938Z,44.40
2023-05-05T14:33:14.158Z,46.10
2023-05-05T14:38:17.167Z,44.35
2023-05-05T14:43:20.712Z,46.05
2023-05-05T14:48:24.994Z,45.13
2023-05-05T14:53:27.867Z,45.28
2023-05-05T14:58:31.097Z,44.35
2023-05-05T15:03:35.710Z,45.20
2023-05-05T15:08:38.947Z,45.63
2023-05-05T15:13:42.187Z,46.33
2023-05-05T15:18:46.635Z,45.03
2023-05-05T15:23:50.137Z,45.10
2023-05-05T15:28:53.714Z,44.63
2023-05-05T15:33:58.780Z,45.25
2023-05-05T15:39:02.163Z,45.63
2023-05-05T15:44:05.480Z,45.13
2023-05-05T15:49:09.721Z,45.47
2023-05-05T15:54:12.608Z,44.85
2023-05-05T15:59:21.734Z,49.78
2023-05-05T16:04:26.136Z,44.92
2023-05-05T16:09:31.256Z,44.97
2023-05-05T16:14:34.136Z,44.47
2023-05-05T16:19:38.442Z,44.25
2023-05-05T16:24:43.653Z,44.58
2023-05-05T16:29:51.180Z,44.47
2023-05-05T16:34:55.468Z,44.22
2023-05-05T16:39:58.360Z,44.08
2023-05-05T16:45:01.229Z,43.60
2023-05-05T16:50:06.424Z,44.13
2023-05-05T16:55:10.322Z,45.47
2023-05-05T17:00:14.587Z,46.53
2023-05-05T17:05:19.236Z,44.40
2023-05-05T17:10:24.416Z,44.60
2023-05-05T17:15:27.287Z,44.05
2023-05-05T17:20:31.958Z,46.83
2023-05-05T17:25:34.950Z,44.38
2023-05-05T17:30:37.839Z,44.10
2023-05-05T17:35:42.179Z,44.78
2023-05-05T17:40:45.235Z,44.22
2023-05-05T17:45:48.298Z,44.88
2023-05-05T17:50:52.611Z,44.85
2023-05-05T17:55:55.520Z,46.72
2023-05-05T18:00:58.419Z,44.95
2023-05-05T18:06:03.199Z,45.28
2023-05-05T18:11:06.159Z,44.40
2023-05-05T18:16:09.239Z,44.75
2023-05-05T18:21:13.546Z,44.00
2023-05-05T18:26:16.496Z,44.00
2023-05-05T18:31:19.447Z,43.92
2023-05-05T18:36:23.845Z,45.05
2023-05-05T18:41:26.771Z,43.60
2023-05-05T18:46:29.766Z,44.80
2023-05-05T18:51:34.266Z,43.65
2023-05-05T18:56:37.419Z,43.90
2023-05-05T19:01:43.010Z,44.03
2023-05-05T19:06:52.551Z,43.30
2023-05-05T19:11:55.720Z,45.42
2023-05-05T19:16:59.097Z,44.80
2023-05-05T19:22:04.027Z,47.10
2023-05-05T19:27:08.122Z,44.83
2023-05-05T19:32:11.163Z,48.38
2023-05-05T19:37:15.599Z,45.92
2023-05-05T19:42:18.900Z,42.85
2023-05-05T19:47:21.795Z,43.33
2023-05-05T19:52:26.782Z,44.67
2023-05-05T19:57:29.670Z,43.08
2023-05-05T20:02:34.694Z,43.40
2023-05-05T20:07:41.558Z,42.80
2023-05-05T20:12:48.334Z,42.15
2023-05-05T20:17:51.586Z,42.72
2023-05-05T20:22:55.974Z,41.78
2023-05-05T20:27:58.871Z,42.65
2023-05-05T20:33:01.818Z,43.00
2023-05-05T20:38:06.338Z,45.78
2023-05-05T20:43:09.359Z,42.08
2023-05-05T20:48:12.342Z,42.80
2023-05-05T20:53:18.880Z,42.03
2023-05-05T20:58:21.820Z,43.33
2023-05-05T21:03:26.869Z,42.90
2023-05-05T21:08:32.194Z,41.75
2023-05-05T21:13:35.146Z,42.33
2023-05-05T21:18:38.006Z,42.28
2023-05-05T21:23:42.261Z,41.25
2023-05-05T21:28:46.528Z,41.83
2023-05-05T21:33:49.555Z,41.65
2023-05-05T21:38:55.358Z,41.85
2023-05-05T21:43:59.211Z,42.35
2023-05-05T21:49:11.810Z,41.97
2023-05-05T21:54:16.170Z,41.20
2023-05-05T21:59:19.111Z,41.92
2023-05-05T22:04:22.142Z,41.65
2023-05-05T22:09:26.419Z,41.75
2023-05-05T22:14:29.292Z,41.63
2023-05-05T22:19:32.170Z,41.53
2023-05-05T22:24:36.423Z,41.97
2023-05-05T22:29:39.395Z,42.97
2023-05-05T22:34:42.293Z,44.03
2023-05-05T22:39:46.557Z,41.85
2023-05-05T22:44:49.844Z,43.97
2023-05-05T22:49:52.722Z,42.50
2023-05-05T22:54:57.349Z,42.08
2023-05-05T23:00:00.523Z,43.25
2023-05-05T23:05:03.550Z,42.17
2023-05-05T23:10:08.844Z,41.17
2023-05-05T23:15:12.706Z,42.13
2023-05-05T23:20:15.848Z,41.65
2023-05-05T23:25:20.152Z,42.15
2023-05-05T23:30:23.209Z,42.15
2023-05-05T23:35:26.264Z,42.75
2023-05-05T23:40:30.498Z,41.50
2023-05-05T23:45:33.366Z,45.25
2023-05-05T23:50:36.238Z,42.00
2023-05-05T23:55:40.466Z,43.88
